St. LLORENÇ del MUNT i l'OBAC -La Mata (Bages)





Hora UTC 03:05
Temperatura 14.0 ºC
Humitat 75.1 %
Pressió 1015.5 hPa
Pluja 0.0 mm
Velocitat vent 0.9 km/h
Direcció vent SE
Radiació solar 0.1 W/m²
Fuel 54.5 %

Dades diàries 2024-05-30



Hora UTC (hivern +1h; estiu +2h)
Temperatura (ºC) Humitat (%) Pressió (hPa) Velocitat vent (km/h) Precipitació (mm) Fuel (%) Radiació solar (W/m²)
Hora UTC Aire Humitat Pressió Vel. Dir. Vel. Max Dir. Intent. màx 5 min. Fuel Rad. Sol.
00:05 14.9 84.4 1017.3 10.1 S 10.1 SSW 0.0 52.0 0.1
00:10 14.8 85.3 1017.2 10.9 S 14.5 S 0.0 52.6 0.1
00:15 14.7 84.4 1017.2 11.6 S 18.0 SSE 0.0 52.9 0.1
00:20 14.7 82.1 1017.1 11.3 S 16.6 S 0.0 53.1 0.1
00:25 14.8 78.1 1017.0 10.9 S 16.9 SSE 0.0 53.0 0.1
00:30 14.9 74.8 1016.9 12.0 S 17.6 SSE 0.0 52.9 0.1
00:35 15.0 72.4 1016.9 12.3 S 18.4 SSW 0.0 52.8 0.1
00:40 15.0 72.5 1016.8 11.8 S 17.3 SSE 0.0 52.8 0.1
00:45 14.9 72.3 1016.8 12.8 S 18.4 SSE 0.0 52.8 0.1
00:50 15.0 71.1 1016.7 12.2 S 19.1 S 0.0 52.8 0.1
00:55 15.0 70.9 1016.7 11.6 S 16.6 S 0.0 52.8 0.1
01:00 14.9 70.5 1016.7 10.5 S 14.5 S 0.0 52.7 0.1
01:05 14.9 70.4 1016.7 10.7 S 15.2 S 0.0 52.7 0.1
01:10 14.9 70.2 1016.6 11.4 S 16.6 SSE 0.0 52.7 0.1
01:15 14.8 70.2 1016.5 10.8 S 16.2 S 0.0 52.7 0.1
01:20 14.9 69.6 1016.6 11.3 S 18.4 S 0.0 52.8 0.1
01:25 14.9 69.3 1016.5 9.7 S 17.3 S 0.0 52.8 0.1
01:30 14.9 69.5 1016.5 11.6 S 18.0 S 0.0 52.8 0.1
01:35 14.9 69.3 1016.4 11.0 S 18.0 SSE 0.0 52.9 0.1
01:40 15.0 68.8 1016.3 12.1 SSW 16.2 SSW 0.0 53.0 0.1
01:45 14.9 69.2 1016.2 11.4 SSW 15.2 SSW 0.0 52.9 0.1
01:50 14.9 69.6 1016.1 13.7 SSW 18.0 SSW 0.0 53.0 0.1
01:55 15.0 69.4 1016.1 14.0 SSW 18.0 SSW 0.0 53.1 0.1
02:00 15.0 69.6 1016.0 11.9 SSW 16.2 SSW 0.0 53.2 0.1
02:05 14.9 69.9 1016.0 12.4 SSW 16.6 S 0.0 53.2 0.1
02:10 14.8 70.4 1015.9 11.7 SSW 15.2 S 0.0 53.3 0.1
02:15 14.7 71.1 1015.9 12.4 SSW 16.6 SSW 0.0 53.5 0.1
02:20 14.7 71.6 1015.8 12.1 SSW 16.9 SSW 0.0 53.6 0.1
02:25 14.6 72.4 1015.8 10.3 SSW 16.2 SSW 0.0 53.7 0.1
02:30 14.6 72.5 1015.7 9.7 SSW 12.7 SSW 0.0 53.9 0.1
02:35 14.5 73.0 1015.7 9.3 SSW 14.8 SSW 0.0 54.1 0.1
02:40 14.4 73.8 1015.6 9.9 SSW 14.1 SSW 0.0 54.2 0.1
02:45 14.4 73.9 1015.6 8.2 SSW 12.0 SSW 0.0 54.3 0.1
02:50 14.3 74.2 1015.6 3.1 WSW 6.7 S 0.0 54.4 0.1
02:55 14.1 74.7 1015.6 1.2 SSE 4.6 SSW 0.0 54.5 0.1
03:00 14.0 74.9 1015.5 0.6 ESE 2.1 ENE 0.0 54.5 0.1
03:05 14.0 75.1 1015.5 0.9 SE 3.2 SE 0.0 54.5 0.1
Màxima 15.1 85.3 1017.3 14.0 SSW 19.1 S 0.0 54.5 0.1
Mínima 13.9 68.8 1015.5 52.0
Total 0.0